sensor_id;sensor_type;location;lat;lon;timestamp;pressure;altitude;pressure_sealevel;temperature;humidity
16016;BME280;8112;53.592;10.184;2023-04-04T00:02:07;102868.16;;;0.59;100.00
16016;BME280;8112;53.592;10.184;2023-04-04T00:07:10;102859.50;;;0.57;100.00
16016;BME280;8112;53.592;10.184;2023-04-04T00:12:12;102857.63;;;0.50;100.00
16016;BME280;8112;53.592;10.184;2023-04-04T00:17:14;102858.13;;;0.30;100.00
16016;BME280;8112;53.592;10.184;2023-04-04T00:22:18;102849.56;;;0.33;100.00
16016;BME280;8112;53.592;10.184;2023-04-04T00:27:20;102844.50;;;0.40;100.00
16016;BME280;8112;53.592;10.184;2023-04-04T00:32:21;102844.63;;;0.48;100.00
16016;BME280;8112;53.592;10.184;2023-04-04T00:37:25;102842.94;;;0.52;100.00
16016;BME280;8112;53.592;10.184;2023-04-04T00:42:27;102838.66;;;0.54;100.00
16016;BME280;8112;53.592;10.184;2023-04-04T00:47:29;102826.91;;;0.24;100.00
16016;BME280;8112;53.592;10.184;2023-04-04T00:52:35;102823.22;;;0.11;100.00
16016;BME280;8112;53.592;10.184;2023-04-04T00:57:37;102817.09;;;0.07;100.00
16016;BME280;8112;53.592;10.184;2023-04-04T01:02:39;102822.75;;;0.34;100.00
16016;BME280;8112;53.592;10.184;2023-04-04T01:07:42;102820.94;;;0.28;100.00
16016;BME280;8112;53.592;10.184;2023-04-04T01:12:47;102819.34;;;-0.10;100.00
16016;BME280;8112;53.592;10.184;2023-04-04T01:17:51;102815.81;;;-0.17;100.00
16016;BME280;8112;53.592;10.184;2023-04-04T01:23:00;102813.00;;;0.19;100.00
16016;BME280;8112;53.592;10.184;2023-04-04T01:28:05;102812.84;;;0.11;100.00
16016;BME280;8112;53.592;10.184;2023-04-04T01:33:12;102793.88;;;0.12;100.00
16016;BME280;8112;53.592;10.184;2023-04-04T01:38:24;102791.41;;;0.20;100.00
16016;BME280;8112;53.592;10.184;2023-04-04T01:43:30;102781.84;;;0.17;100.00
16016;BME280;8112;53.592;10.184;2023-04-04T01:48:34;102797.31;;;0.12;100.00
16016;BME280;8112;53.592;10.184;2023-04-04T01:53:39;102787.38;;;0.39;100.00
16016;BME280;8112;53.592;10.184;2023-04-04T01:58:43;102777.09;;;0.45;100.00
16016;BME280;8112;53.592;10.184;2023-04-04T02:03:47;102769.53;;;0.56;100.00
16016;BME280;8112;53.592;10.184;2023-04-04T02:08:49;102770.41;;;0.58;100.00
16016;BME280;8112;53.592;10.184;2023-04-04T02:13:54;102764.84;;;0.35;100.00
16016;BME280;8112;53.592;10.184;2023-04-04T02:18:57;102771.06;;;-0.06;100.00
16016;BME280;8112;53.592;10.184;2023-04-04T02:23:59;102763.84;;;-0.23;100.00
16016;BME280;8112;53.592;10.184;2023-04-04T02:29:02;102754.88;;;0.07;100.00
16016;BME280;8112;53.592;10.184;2023-04-04T02:34:04;102762.09;;;0.25;100.00
16016;BME280;8112;53.592;10.184;2023-04-04T02:39:06;102766.00;;;0.00;100.00
16016;BME280;8112;53.592;10.184;2023-04-04T02:44:13;102757.66;;;-0.31;100.00
16016;BME280;8112;53.592;10.184;2023-04-04T02:49:16;102760.88;;;-0.41;100.00
16016;BME280;8112;53.592;10.184;2023-04-04T02:54:23;102761.53;;;-0.53;100.00
16016;BME280;8112;53.592;10.184;2023-04-04T02:59:28;102760.03;;;-0.40;100.00
16016;BME280;8112;53.592;10.184;2023-04-04T03:04:30;102765.56;;;-0.23;100.00
16016;BME280;8112;53.592;10.184;2023-04-04T03:09:33;102763.38;;;-0.46;100.00
16016;BME280;8112;53.592;10.184;2023-04-04T03:14:37;102762.53;;;-0.47;100.00
16016;BME280;8112;53.592;10.184;2023-04-04T03:19:42;102773.41;;;-0.19;100.00
16016;BME280;8112;53.592;10.184;2023-04-04T03:24:44;102760.63;;;-0.09;100.00
16016;BME280;8112;53.592;10.184;2023-04-04T03:29:48;102760.09;;;-0.39;100.00
16016;BME280;8112;53.592;10.184;2023-04-04T03:34:50;102764.06;;;-0.55;100.00
16016;BME280;8112;53.592;10.184;2023-04-04T03:39:52;102755.34;;;-0.60;100.00
16016;BME280;8112;53.592;10.184;2023-04-04T03:44:56;102748.91;;;-0.36;100.00
16016;BME280;8112;53.592;10.184;2023-04-04T03:50:06;102755.66;;;-0.45;100.00
16016;BME280;8112;53.592;10.184;2023-04-04T03:55:11;102755.47;;;-0.54;100.00
16016;BME280;8112;53.592;10.184;2023-04-04T04:00:15;102747.03;;;-0.44;100.00
16016;BME280;8112;53.592;10.184;2023-04-04T04:05:19;102747.81;;;-0.48;100.00
16016;BME280;8112;53.592;10.184;2023-04-04T04:10:21;102739.84;;;-0.57;100.00
16016;BME280;8112;53.592;10.184;2023-04-04T04:15:24;102740.31;;;-0.35;100.00
16016;BME280;8112;53.592;10.184;2023-04-04T04:20:27;102739.16;;;-0.50;100.00
16016;BME280;8112;53.592;10.184;2023-04-04T06:28:08;102748.59;;;2.91;100.00
16016;BME280;8112;53.592;10.184;2023-04-04T12:41:56;102525.53;;;13.90;40.66
16016;BME280;8112;53.592;10.184;2023-04-04T12:46:59;102511.94;;;13.15;42.86
16016;BME280;8112;53.592;10.184;2023-04-04T12:52:02;102516.63;;;12.63;45.83
16016;BME280;8112;53.592;10.184;2023-04-04T12:57:07;102513.25;;;13.68;40.65
16016;BME280;8112;53.592;10.184;2023-04-04T13:02:13;102500.50;;;14.16;43.58
16016;BME280;8112;53.592;10.184;2023-04-04T13:07:23;102495.06;;;14.19;40.85
16016;BME280;8112;53.592;10.184;2023-04-04T13:12:56;102494.19;;;13.60;39.49
16016;BME280;8112;53.592;10.184;2023-04-04T13:18:12;102489.44;;;12.82;37.66
16016;BME280;8112;53.592;10.184;2023-04-04T13:23:15;102479.34;;;12.92;41.62
16016;BME280;8112;53.592;10.184;2023-04-04T13:28:18;102469.09;;;13.05;41.98
16016;BME280;8112;53.592;10.184;2023-04-04T13:33:19;102461.66;;;13.96;43.54
16016;BME280;8112;53.592;10.184;2023-04-04T13:38:22;102457.78;;;14.42;42.17
16016;BME280;8112;53.592;10.184;2023-04-04T13:43:26;102458.66;;;14.23;44.47
16016;BME280;8112;53.592;10.184;2023-04-04T13:48:27;102453.13;;;14.08;42.57
16016;BME280;8112;53.592;10.184;2023-04-04T13:53:30;102444.88;;;13.14;39.13
16016;BME280;8112;53.592;10.184;2023-04-04T13:58:33;102426.75;;;12.39;38.14
16016;BME280;8112;53.592;10.184;2023-04-04T14:03:35;102420.91;;;12.96;41.79
16016;BME280;8112;53.592;10.184;2023-04-04T14:08:37;102420.00;;;12.97;43.95
16016;BME280;8112;53.592;10.184;2023-04-04T14:13:40;102418.22;;;12.55;45.74
16016;BME280;8112;53.592;10.184;2023-04-04T14:18:42;102403.13;;;13.00;44.45
16016;BME280;8112;53.592;10.184;2023-04-04T14:23:44;102405.59;;;13.05;45.81
16016;BME280;8112;53.592;10.184;2023-04-04T14:28:47;102401.06;;;14.44;43.76
16016;BME280;8112;53.592;10.184;2023-04-04T14:33:48;102392.09;;;14.29;39.14
16016;BME280;8112;53.592;10.184;2023-04-04T14:38:50;102393.59;;;14.16;41.86
16016;BME280;8112;53.592;10.184;2023-04-04T14:43:53;102404.06;;;12.99;43.69
16016;BME280;8112;53.592;10.184;2023-04-04T14:48:55;102389.19;;;12.53;44.11
16016;BME280;8112;53.592;10.184;2023-04-04T14:53:57;102373.28;;;11.37;39.99
16016;BME280;8112;53.592;10.184;2023-04-04T14:59:00;102372.09;;;11.46;44.30
16016;BME280;8112;53.592;10.184;2023-04-04T15:04:04;102370.19;;;11.26;45.84
16016;BME280;8112;53.592;10.184;2023-04-04T15:09:07;102370.53;;;11.40;45.32
16016;BME280;8112;53.592;10.184;2023-04-04T15:14:10;102374.75;;;11.46;43.88
16016;BME280;8112;53.592;10.184;2023-04-04T15:19:12;102364.09;;;11.73;46.17
16016;BME280;8112;53.592;10.184;2023-04-04T15:24:13;102370.00;;;12.04;43.10
16016;BME280;8112;53.592;10.184;2023-04-04T15:29:16;102366.53;;;12.24;40.70
16016;BME280;8112;53.592;10.184;2023-04-04T15:34:18;102358.97;;;11.45;41.12
16016;BME280;8112;53.592;10.184;2023-04-04T15:39:20;102355.59;;;11.16;41.03
16016;BME280;8112;53.592;10.184;2023-04-04T15:44:23;102349.66;;;10.83;41.16
16016;BME280;8112;53.592;10.184;2023-04-04T15:49:24;102345.91;;;10.37;42.52
16016;BME280;8112;53.592;10.184;2023-04-04T15:54:29;102355.63;;;10.06;46.27
16016;BME280;8112;53.592;10.184;2023-04-04T15:59:32;102347.84;;;9.73;45.87
16016;BME280;8112;53.592;10.184;2023-04-04T16:04:34;102341.22;;;9.28;47.55
16016;BME280;8112;53.592;10.184;2023-04-04T16:09:36;102343.69;;;9.01;50.53
16016;BME280;8112;53.592;10.184;2023-04-04T16:14:39;102345.31;;;8.72;50.64
16016;BME280;8112;53.592;10.184;2023-04-04T16:19:40;102336.78;;;8.26;49.44
16016;BME280;8112;53.592;10.184;2023-04-04T16:24:42;102337.22;;;8.06;51.13
16016;BME280;8112;53.592;10.184;2023-04-04T16:30:07;102340.22;;;7.89;50.48
16016;BME280;8112;53.592;10.184;2023-04-04T16:35:09;102335.41;;;7.67;51.74
16016;BME280;8112;53.592;10.184;2023-04-04T16:40:11;102328.88;;;7.46;51.67
16016;BME280;8112;53.592;10.184;2023-04-04T16:51:11;102331.03;;;7.25;52.16
16016;BME280;8112;53.592;10.184;2023-04-04T16:56:13;102327.72;;;7.15;53.24
16016;BME280;8112;53.592;10.184;2023-04-04T17:01:16;102323.47;;;7.09;53.16
16016;BME280;8112;53.592;10.184;2023-04-04T17:06:23;102318.56;;;6.91;52.22
16016;BME280;8112;53.592;10.184;2023-04-04T17:11:25;102313.44;;;6.83;52.30
16016;BME280;8112;53.592;10.184;2023-04-04T17:16:28;102313.31;;;6.89;53.50
16016;BME280;8112;53.592;10.184;2023-04-04T17:21:32;102322.25;;;6.79;55.26
16016;BME280;8112;53.592;10.184;2023-04-04T17:26:33;102319.91;;;6.63;56.06
16016;BME280;8112;53.592;10.184;2023-04-04T17:31:37;102313.19;;;6.47;55.09
16016;BME280;8112;53.592;10.184;2023-04-04T17:43:05;102312.75;;;6.17;56.58
16016;BME280;8112;53.592;10.184;2023-04-04T17:48:07;102311.13;;;6.09;57.37
16016;BME280;8112;53.592;10.184;2023-04-04T17:53:09;102314.78;;;5.97;58.88
16016;BME280;8112;53.592;10.184;2023-04-04T17:58:12;102315.00;;;5.80;63.08
16016;BME280;8112;53.592;10.184;2023-04-04T18:03:14;102316.84;;;5.72;66.01
16016;BME280;8112;53.592;10.184;2023-04-04T18:08:19;102317.88;;;5.60;72.49
16016;BME280;8112;53.592;10.184;2023-04-04T18:13:23;102311.78;;;5.60;79.41
16016;BME280;8112;53.592;10.184;2023-04-04T18:18:24;102304.16;;;5.41;83.98
16016;BME280;8112;53.592;10.184;2023-04-04T18:29:50;102316.63;;;5.16;92.81
16016;BME280;8112;53.592;10.184;2023-04-04T18:34:52;102325.59;;;4.94;97.26
16016;BME280;8112;53.592;10.184;2023-04-04T18:39:53;102317.88;;;4.79;100.00
16016;BME280;8112;53.592;10.184;2023-04-04T18:44:57;102328.41;;;4.69;100.00
16016;BME280;8112;53.592;10.184;2023-04-04T18:49:58;102323.38;;;4.45;100.00
16016;BME280;8112;53.592;10.184;2023-04-04T18:55:00;102324.38;;;4.26;100.00
16016;BME280;8112;53.592;10.184;2023-04-04T19:00:05;102324.47;;;4.12;100.00
16016;BME280;8112;53.592;10.184;2023-04-04T19:05:10;102338.38;;;4.14;100.00
16016;BME280;8112;53.592;10.184;2023-04-04T19:10:12;102327.06;;;4.16;100.00
16016;BME280;8112;53.592;10.184;2023-04-04T19:15:17;102331.44;;;4.15;100.00
16016;BME280;8112;53.592;10.184;2023-04-04T19:20:18;102337.66;;;3.89;100.00
16016;BME280;8112;53.592;10.184;2023-04-04T19:25:20;102335.94;;;3.83;100.00
16016;BME280;8112;53.592;10.184;2023-04-04T19:30:43;102333.44;;;3.54;100.00
16016;BME280;8112;53.592;10.184;2023-04-04T19:35:51;102334.38;;;3.39;100.00
16016;BME280;8112;53.592;10.184;2023-04-04T19:40:55;102331.81;;;3.19;100.00
16016;BME280;8112;53.592;10.184;2023-04-04T19:46:06;102324.03;;;3.17;100.00
16016;BME280;8112;53.592;10.184;2023-04-04T19:51:10;102327.53;;;3.01;100.00
16016;BME280;8112;53.592;10.184;2023-04-04T19:56:13;102318.00;;;2.85;100.00
16016;BME280;8112;53.592;10.184;2023-04-04T20:01:19;102324.09;;;2.80;100.00
16016;BME280;8112;53.592;10.184;2023-04-04T20:06:23;102324.94;;;2.74;100.00
16016;BME280;8112;53.592;10.184;2023-04-04T20:11:28;102325.81;;;2.65;100.00
16016;BME280;8112;53.592;10.184;2023-04-04T20:16:32;102324.09;;;2.64;100.00
16016;BME280;8112;53.592;10.184;2023-04-04T20:21:33;102325.84;;;2.59;100.00
16016;BME280;8112;53.592;10.184;2023-04-04T20:26:41;102321.47;;;2.46;100.00
16016;BME280;8112;53.592;10.184;2023-04-04T20:31:46;102324.09;;;2.39;100.00
16016;BME280;8112;53.592;10.184;2023-04-04T20:36:48;102329.25;;;2.28;100.00
16016;BME280;8112;53.592;10.184;2023-04-04T20:41:49;102341.38;;;2.19;100.00
16016;BME280;8112;53.592;10.184;2023-04-04T20:46:53;102337.91;;;2.17;100.00
16016;BME280;8112;53.592;10.184;2023-04-04T20:51:55;102337.06;;;2.27;100.00
16016;BME280;8112;53.592;10.184;2023-04-04T20:56:57;102329.25;;;2.36;100.00
16016;BME280;8112;53.592;10.184;2023-04-04T21:02:09;102331.81;;;2.07;100.00
16016;BME280;8112;53.592;10.184;2023-04-04T21:07:32;102333.53;;;2.02;100.00
16016;BME280;8112;53.592;10.184;2023-04-04T21:12:35;102324.00;;;1.99;100.00
16016;BME280;8112;53.592;10.184;2023-04-04T21:17:38;102323.97;;;1.83;100.00
16016;BME280;8112;53.592;10.184;2023-04-04T21:22:39;102325.66;;;1.72;100.00
16016;BME280;8112;53.592;10.184;2023-04-04T21:27:41;102328.25;;;1.74;100.00
16016;BME280;8112;53.592;10.184;2023-04-04T21:32:44;102320.44;;;1.67;100.00
16016;BME280;8112;53.592;10.184;2023-04-04T21:37:46;102319.56;;;1.62;100.00
16016;BME280;8112;53.592;10.184;2023-04-04T21:42:49;102317.81;;;1.58;100.00
16016;BME280;8112;53.592;10.184;2023-04-04T21:47:52;102313.41;;;1.46;100.00
16016;BME280;8112;53.592;10.184;2023-04-04T21:52:54;102309.09;;;1.47;100.00
16016;BME280;8112;53.592;10.184;2023-04-04T21:57:56;102304.72;;;1.38;100.00
16016;BME280;8112;53.592;10.184;2023-04-04T22:02:59;102305.53;;;1.27;100.00
16016;BME280;8112;53.592;10.184;2023-04-04T22:08:01;102296.78;;;1.08;100.00
16016;BME280;8112;53.592;10.184;2023-04-04T22:13:02;102294.91;;;0.87;100.00
16016;BME280;8112;53.592;10.184;2023-04-04T22:18:06;102291.44;;;0.85;100.00
16016;BME280;8112;53.592;10.184;2023-04-04T22:23:14;102286.25;;;0.83;100.00
16016;BME280;8112;53.592;10.184;2023-04-04T22:28:17;102286.16;;;0.73;100.00
16016;BME280;8112;53.592;10.184;2023-04-04T22:33:25;102289.69;;;0.84;100.00
16016;BME280;8112;53.592;10.184;2023-04-04T22:38:30;102286.19;;;0.77;100.00
16016;BME280;8112;53.592;10.184;2023-04-04T22:43:31;102279.13;;;0.56;100.00
16016;BME280;8112;53.592;10.184;2023-04-04T22:48:34;102282.53;;;0.47;100.00
16016;BME280;8112;53.592;10.184;2023-04-04T22:53:40;102280.00;;;0.56;100.00
16016;BME280;8112;53.592;10.184;2023-04-04T22:58:43;102272.22;;;0.58;100.00
16016;BME280;8112;53.592;10.184;2023-04-04T23:03:46;102276.53;;;0.56;100.00
16016;BME280;8112;53.592;10.184;2023-04-04T23:08:48;102279.00;;;0.40;100.00
16016;BME280;8112;53.592;10.184;2023-04-04T23:13:49;102276.31;;;0.31;100.00
16016;BME280;8112;53.592;10.184;2023-04-04T23:18:54;102270.25;;;0.27;100.00
16016;BME280;8112;53.592;10.184;2023-04-04T23:23:56;102268.56;;;0.33;100.00
16016;BME280;8112;53.592;10.184;2023-04-04T23:29:01;102269.44;;;0.35;100.00
16016;BME280;8112;53.592;10.184;2023-04-04T23:34:04;102266.84;;;0.35;100.00
16016;BME280;8112;53.592;10.184;2023-04-04T23:39:06;102271.06;;;0.22;100.00
16016;BME280;8112;53.592;10.184;2023-04-04T23:44:07;102270.03;;;0.06;100.00
16016;BME280;8112;53.592;10.184;2023-04-04T23:49:11;102268.28;;;0.00;100.00
16016;BME280;8112;53.592;10.184;2023-04-04T23:54:16;102263.94;;;0.01;100.00
16016;BME280;8112;53.592;10.184;2023-04-04T23:59:17;102270.13;;;0.17;100.00
